createdAt,value
2023-02-02T00:02:08.778Z,37.57
2023-02-02T00:04:37.011Z,37.39
2023-02-02T00:07:05.850Z,37.62
2023-02-02T00:09:33.146Z,38.10
2023-02-02T00:12:01.818Z,37.90
2023-02-02T00:14:28.909Z,38.04
2023-02-02T00:16:56.218Z,37.75
2023-02-02T00:19:26.992Z,37.65
2023-02-02T00:21:54.920Z,37.58
2023-02-02T00:24:22.352Z,37.84
2023-02-02T00:26:50.595Z,37.98
2023-02-02T00:29:19.943Z,38.30
2023-02-02T00:31:46.880Z,37.68
2023-02-02T00:34:14.477Z,37.93
2023-02-02T00:36:41.905Z,38.11
2023-02-02T00:39:09.894Z,37.89
2023-02-02T00:41:37.297Z,38.28
2023-02-02T00:44:07.588Z,38.73
2023-02-02T00:46:35.828Z,38.64
2023-02-02T00:49:02.677Z,38.76
2023-02-02T00:51:29.641Z,38.90
2023-02-02T00:53:56.551Z,38.87
2023-02-02T00:56:23.463Z,39.12
2023-02-02T00:58:50.437Z,39.11
2023-02-02T01:01:18.442Z,39.01
2023-02-02T01:03:45.529Z,39.36
2023-02-02T01:06:12.450Z,39.67
2023-02-02T01:08:39.899Z,39.46
2023-02-02T01:11:06.856Z,39.91
2023-02-02T01:13:34.582Z,39.70
2023-02-02T01:16:03.079Z,39.91
2023-02-02T01:18:30.564Z,39.78
2023-02-02T01:20:58.800Z,40.31
2023-02-02T01:23:25.986Z,40.03
2023-02-02T01:25:54.414Z,40.16
2023-02-02T01:28:21.334Z,40.01
2023-02-02T01:30:49.340Z,40.05
2023-02-02T01:33:16.744Z,40.22
2023-02-02T01:35:46.898Z,40.34
2023-02-02T01:38:14.358Z,40.69
2023-02-02T01:40:44.744Z,40.62
2023-02-02T01:43:22.407Z,40.57
2023-02-02T01:45:49.380Z,40.15
2023-02-02T01:48:17.186Z,40.25
2023-02-02T01:50:44.335Z,40.25
2023-02-02T01:53:12.335Z,40.26
2023-02-02T01:55:40.138Z,40.04
2023-02-02T01:58:11.230Z,39.96
2023-02-02T02:00:39.824Z,40.12
2023-02-02T02:03:09.330Z,40.11
2023-02-02T02:05:37.634Z,40.32
2023-02-02T02:08:08.541Z,40.17
2023-02-02T02:10:35.671Z,40.22
2023-02-02T02:13:02.714Z,40.32
2023-02-02T02:15:38.201Z,39.93
2023-02-02T02:18:12.950Z,39.95
2023-02-02T02:20:43.289Z,40.04
2023-02-02T02:23:16.787Z,40.12
2023-02-02T02:25:47.228Z,40.15
2023-02-02T02:28:17.171Z,40.05
2023-02-02T02:30:47.175Z,40.12
2023-02-02T02:33:20.333Z,40.29
2023-02-02T02:35:47.502Z,40.09
2023-02-02T02:38:20.782Z,40.41
2023-02-02T02:40:48.096Z,40.34
2023-02-02T02:43:18.205Z,40.17
2023-02-02T02:45:45.537Z,40.13
2023-02-02T02:48:12.524Z,40.51
2023-02-02T02:50:39.446Z,40.25
2023-02-02T02:53:09.233Z,40.51
2023-02-02T02:55:39.235Z,40.43
2023-02-02T02:58:10.125Z,40.39
2023-02-02T03:00:39.968Z,40.42
2023-02-02T03:03:08.194Z,40.78
2023-02-02T03:05:38.124Z,40.86
2023-02-02T03:08:08.265Z,40.96
2023-02-02T03:10:35.863Z,41.09
2023-02-02T03:13:07.515Z,40.88
2023-02-02T03:15:34.718Z,41.18
2023-02-02T03:18:01.652Z,41.44
2023-02-02T03:20:28.642Z,41.53
2023-02-02T03:22:55.485Z,41.27
2023-02-02T03:25:24.268Z,41.56
2023-02-02T03:27:51.816Z,41.35
2023-02-02T03:30:19.728Z,41.62
2023-02-02T03:32:46.938Z,41.59
2023-02-02T03:35:14.153Z,41.22
2023-02-02T03:37:41.111Z,41.72
2023-02-02T03:40:08.623Z,41.64
2023-02-02T03:42:35.453Z,41.46
2023-02-02T03:45:02.403Z,41.64
2023-02-02T03:47:30.283Z,42.07
2023-02-02T03:49:57.150Z,41.94
2023-02-02T03:52:25.299Z,41.67
2023-02-02T03:54:52.394Z,41.77
2023-02-02T03:57:19.857Z,41.70
2023-02-02T03:59:46.685Z,42.13
2023-02-02T04:02:13.589Z,42.00
2023-02-02T04:04:40.644Z,42.00
2023-02-02T04:07:07.499Z,42.11
2023-02-02T04:09:34.522Z,41.89
2023-02-02T04:12:01.383Z,42.28
2023-02-02T04:14:28.394Z,41.82
2023-02-02T04:16:55.515Z,41.82
2023-02-02T04:19:22.361Z,41.87
2023-02-02T04:21:49.331Z,41.77
2023-02-02T04:24:16.322Z,42.11
2023-02-02T04:26:43.266Z,41.78
2023-02-02T04:29:10.150Z,41.91
2023-02-02T04:31:37.034Z,42.12
2023-02-02T04:34:04.106Z,41.76
2023-02-02T04:36:31.074Z,41.81
2023-02-02T04:38:57.965Z,41.88
2023-02-02T04:41:24.949Z,41.77
2023-02-02T04:43:51.883Z,41.65
2023-02-02T04:46:18.950Z,42.08
2023-02-02T04:48:48.628Z,41.81
2023-02-02T04:51:15.466Z,41.90
2023-02-02T04:53:43.013Z,41.60
2023-02-02T04:56:12.664Z,41.75
2023-02-02T04:58:39.884Z,41.65
2023-02-02T05:01:10.173Z,41.61
2023-02-02T05:03:37.022Z,41.90
2023-02-02T05:06:04.603Z,41.73
2023-02-02T05:08:31.692Z,42.02
2023-02-02T05:10:58.710Z,42.01
2023-02-02T05:13:25.519Z,41.79
2023-02-02T05:15:53.765Z,42.02
2023-02-02T05:18:20.622Z,41.95
2023-02-02T05:20:47.543Z,42.30
2023-02-02T05:23:14.386Z,42.19
2023-02-02T05:25:41.303Z,42.19
2023-02-02T05:28:08.135Z,42.32
2023-02-02T05:30:35.033Z,42.16
2023-02-02T05:33:02.686Z,42.49
2023-02-02T05:35:29.778Z,42.05
2023-02-02T05:37:59.195Z,42.27
2023-02-02T05:40:26.223Z,42.32
2023-02-02T05:42:53.083Z,42.32
2023-02-02T05:45:20.023Z,42.40
2023-02-02T05:47:47.083Z,42.28
2023-02-02T05:50:14.033Z,42.67
2023-02-02T05:52:41.786Z,42.60
2023-02-02T05:55:10.182Z,42.37
2023-02-02T05:57:37.027Z,42.22
2023-02-02T06:00:04.488Z,42.18
2023-02-02T06:02:31.583Z,43.04
2023-02-02T06:04:58.562Z,42.96
2023-02-02T06:07:25.510Z,42.98
2023-02-02T06:09:52.366Z,43.02
2023-02-02T06:12:19.285Z,43.05
2023-02-02T06:14:46.178Z,42.86
2023-02-02T06:17:13.087Z,42.62
2023-02-02T06:19:40.026Z,42.78
2023-02-02T06:22:08.038Z,42.69
2023-02-02T06:24:34.965Z,42.22
2023-02-02T06:27:01.831Z,42.30
2023-02-02T06:29:28.743Z,42.30
2023-02-02T06:31:56.631Z,42.36
2023-02-02T06:34:24.183Z,42.14
2023-02-02T06:36:51.378Z,41.89
2023-02-02T06:39:18.221Z,41.95
2023-02-02T06:41:46.910Z,41.69
2023-02-02T06:44:15.489Z,41.38
2023-02-02T06:46:43.146Z,41.29
2023-02-02T06:49:09.981Z,41.29
2023-02-02T06:51:36.823Z,41.45
2023-02-02T06:54:04.356Z,41.38
2023-02-02T06:56:31.829Z,40.93
2023-02-02T06:58:58.687Z,41.00
2023-02-02T07:01:25.652Z,41.06
2023-02-02T07:03:52.898Z,41.14
2023-02-02T07:06:21.747Z,40.86
2023-02-02T07:09:01.712Z,41.15
2023-02-02T07:11:30.241Z,41.21
2023-02-02T07:13:57.486Z,41.14
2023-02-02T07:16:24.414Z,40.62
2023-02-02T07:18:51.329Z,40.95
2023-02-02T07:21:19.813Z,40.73
2023-02-02T07:23:47.184Z,41.80
2023-02-02T07:26:14.856Z,40.69
2023-02-02T07:28:42.269Z,39.99
2023-02-02T07:31:12.491Z,39.34
2023-02-02T07:33:42.069Z,39.13
2023-02-02T07:36:09.462Z,38.96
2023-02-02T07:38:37.069Z,38.62
2023-02-02T07:41:04.840Z,38.88
2023-02-02T07:43:32.443Z,38.90
2023-02-02T07:46:03.244Z,38.87
2023-02-02T07:48:30.753Z,38.07
2023-02-02T07:50:59.948Z,38.07
2023-02-02T07:53:27.403Z,38.82
2023-02-02T07:55:54.423Z,38.89
2023-02-02T07:58:21.386Z,38.64
2023-02-02T08:00:48.501Z,39.00
2023-02-02T08:03:15.560Z,38.68
2023-02-02T08:05:42.721Z,38.52
2023-02-02T08:08:09.746Z,38.71
2023-02-02T08:10:36.742Z,38.75
2023-02-02T08:13:04.258Z,39.00
2023-02-02T08:15:31.204Z,39.01
2023-02-02T08:17:59.954Z,38.87
2023-02-02T08:20:27.349Z,38.99
2023-02-02T08:22:54.293Z,38.75
2023-02-02T08:25:21.381Z,39.06
2023-02-02T08:27:48.388Z,39.27
2023-02-02T08:30:15.461Z,38.70
2023-02-02T08:32:42.492Z,38.81
2023-02-02T08:35:09.562Z,39.03
2023-02-02T08:37:36.479Z,39.05
2023-02-02T08:40:03.955Z,39.04
2023-02-02T08:42:30.918Z,39.04
2023-02-02T08:46:01.634Z,38.66
2023-02-02T08:47:45.029Z,38.91
2023-02-02T08:50:12.707Z,39.02
2023-02-02T08:52:40.366Z,38.79
2023-02-02T08:55:07.727Z,39.10
2023-02-02T08:57:34.824Z,39.03
2023-02-02T09:00:01.800Z,39.09
2023-02-02T09:02:29.031Z,38.74
2023-02-02T09:04:56.479Z,38.70
2023-02-02T09:07:23.904Z,38.71
2023-02-02T09:09:53.421Z,38.94
2023-02-02T09:12:20.907Z,38.86
2023-02-02T09:14:48.434Z,39.01
2023-02-02T09:17:15.440Z,39.05
2023-02-02T09:19:42.358Z,38.91
2023-02-02T09:22:09.768Z,38.92
2023-02-02T09:24:36.678Z,38.55
2023-02-02T09:27:03.809Z,38.63
2023-02-02T09:29:31.533Z,38.84
2023-02-02T09:31:58.533Z,38.51
2023-02-02T09:34:25.734Z,38.58
2023-02-02T09:36:53.147Z,38.70
2023-02-02T09:39:20.829Z,38.90
2023-02-02T09:41:52.621Z,38.88
2023-02-02T09:44:20.854Z,38.78
2023-02-02T09:46:48.546Z,38.68
2023-02-02T09:49:18.058Z,39.11
2023-02-02T09:51:49.623Z,38.76
2023-02-02T09:54:20.639Z,38.98
2023-02-02T09:56:51.976Z,38.78
2023-02-02T09:59:24.488Z,39.08
2023-02-02T10:01:56.181Z,39.24
2023-02-02T10:04:28.667Z,38.81
2023-02-02T10:06:57.923Z,39.23
2023-02-02T10:09:27.876Z,39.04
2023-02-02T10:11:58.515Z,39.31
2023-02-02T10:14:28.306Z,38.88
2023-02-02T10:16:57.795Z,38.92
2023-02-02T10:19:29.432Z,39.27
2023-02-02T10:21:59.514Z,39.02
2023-02-02T10:24:29.758Z,39.04
2023-02-02T10:26:58.752Z,39.28
2023-02-02T10:29:26.162Z,39.47
2023-02-02T10:31:56.914Z,39.32
2023-02-02T10:34:27.749Z,39.08
2023-02-02T10:36:55.171Z,39.13
2023-02-02T10:39:22.536Z,39.46
2023-02-02T10:41:57.334Z,39.11
2023-02-02T10:44:27.861Z,39.40
2023-02-02T10:46:56.222Z,39.07
2023-02-02T10:49:23.535Z,39.34
2023-02-02T10:51:54.864Z,39.10
2023-02-02T10:54:36.259Z,39.02
2023-02-02T10:57:11.307Z,39.30
2023-02-02T10:59:44.755Z,39.27
2023-02-02T11:02:20.894Z,38.81
2023-02-02T11:04:51.425Z,38.80
2023-02-02T11:07:20.866Z,39.18
2023-02-02T11:09:47.818Z,38.78
2023-02-02T11:12:16.249Z,39.01
2023-02-02T11:14:46.634Z,38.86
2023-02-02T11:17:16.655Z,38.76
2023-02-02T11:19:43.624Z,38.85
2023-02-02T11:22:23.676Z,38.80
2023-02-02T11:24:50.821Z,38.84
2023-02-02T11:27:21.773Z,38.94
2023-02-02T11:29:50.284Z,38.88
2023-02-02T11:32:18.684Z,38.72
2023-02-02T11:34:45.863Z,38.73
2023-02-02T11:37:14.634Z,39.09
2023-02-02T11:39:42.890Z,38.83
2023-02-02T11:42:12.969Z,38.94
2023-02-02T11:44:40.322Z,38.91
2023-02-02T11:47:07.438Z,38.60
2023-02-02T11:49:39.385Z,38.93
2023-02-02T11:52:14.702Z,39.08
2023-02-02T11:58:02.942Z,38.95
2023-02-02T12:00:30.884Z,39.12
2023-02-02T12:03:00.204Z,39.17
2023-02-02T12:05:33.548Z,38.75
2023-02-02T12:08:00.703Z,39.06
2023-02-02T12:10:35.000Z,39.15
2023-02-02T12:13:08.342Z,38.83
2023-02-02T12:15:38.362Z,39.20
2023-02-02T12:18:16.482Z,38.75
2023-02-02T12:20:50.961Z,38.87
2023-02-02T12:23:21.003Z,39.08
2023-02-02T12:25:51.098Z,39.20
2023-02-02T12:28:25.899Z,39.16
2023-02-02T12:30:56.085Z,39.21
2023-02-02T12:33:25.187Z,38.90
2023-02-02T12:35:55.268Z,38.92
2023-02-02T12:38:25.519Z,38.90
2023-02-02T12:40:56.244Z,39.10
2023-02-02T12:43:30.644Z,39.27
2023-02-02T12:46:07.452Z,38.95
2023-02-02T12:48:35.876Z,39.04
2023-02-02T12:51:11.444Z,39.16
2023-02-02T12:53:38.842Z,39.00
2023-02-02T12:56:08.841Z,39.35
2023-02-02T12:58:38.807Z,39.11
2023-02-02T13:01:08.867Z,39.50
2023-02-02T13:03:51.273Z,39.28
2023-02-02T13:06:21.806Z,39.52
2023-02-02T13:08:49.261Z,39.45
2023-02-02T13:11:24.299Z,39.42
2023-02-02T13:13:51.370Z,39.54
2023-02-02T13:16:18.627Z,39.42
2023-02-02T13:18:51.120Z,39.58
2023-02-02T13:21:21.573Z,39.40
2023-02-02T13:23:51.640Z,39.59
2023-02-02T13:26:20.573Z,39.31
2023-02-02T13:28:49.105Z,39.58
2023-02-02T13:31:19.050Z,39.61
2023-02-02T13:33:50.498Z,39.72
2023-02-02T13:36:26.189Z,39.51
2023-02-02T13:38:55.918Z,39.71
2023-02-02T13:41:24.122Z,39.79
2023-02-02T13:43:58.217Z,39.92
2023-02-02T13:46:26.682Z,39.90
2023-02-02T13:48:59.046Z,39.93
2023-02-02T13:51:26.729Z,39.80
2023-02-02T13:53:56.976Z,39.70
2023-02-02T13:56:27.138Z,39.56
2023-02-02T13:59:03.991Z,39.78
2023-02-02T14:01:32.356Z,39.69
2023-02-02T14:04:01.463Z,39.76
2023-02-02T14:06:29.339Z,39.73
2023-02-02T14:08:58.661Z,40.10
2023-02-02T14:11:31.587Z,39.77
2023-02-02T14:14:05.662Z,39.80
2023-02-02T14:16:34.156Z,40.26
2023-02-02T14:19:01.841Z,39.90
2023-02-02T14:21:32.157Z,40.00
2023-02-02T14:24:06.186Z,40.12
2023-02-02T14:26:36.513Z,40.26
2023-02-02T14:29:03.646Z,40.01
2023-02-02T14:31:42.541Z,40.08
2023-02-02T14:34:13.643Z,40.10
2023-02-02T14:36:41.619Z,40.21
2023-02-02T14:39:17.639Z,40.08
2023-02-02T14:41:51.157Z,40.58
2023-02-02T14:44:18.318Z,40.58
2023-02-02T14:46:49.477Z,40.20
2023-02-02T14:49:18.548Z,40.19
2023-02-02T14:51:48.346Z,40.26
2023-02-02T14:54:18.386Z,40.70
2023-02-02T14:56:50.718Z,40.59
2023-02-02T14:59:20.645Z,40.38
2023-02-02T15:01:51.646Z,40.46
2023-02-02T15:04:21.948Z,40.30
2023-02-02T15:06:49.691Z,40.71
2023-02-02T15:09:19.916Z,40.28
2023-02-02T15:11:49.945Z,40.36
2023-02-02T15:14:20.637Z,40.70
2023-02-02T15:16:48.002Z,40.20
2023-02-02T15:19:21.252Z,40.34
2023-02-02T15:21:49.990Z,40.55
2023-02-02T15:24:20.978Z,40.62
2023-02-02T15:26:49.063Z,40.44
2023-02-02T15:29:22.662Z,40.68
2023-02-02T15:31:55.237Z,40.97
2023-02-02T15:34:25.623Z,41.01
2023-02-02T15:36:55.103Z,41.11
2023-02-02T15:39:25.597Z,40.79
2023-02-02T15:42:14.802Z,40.71
2023-02-02T15:44:44.056Z,40.73
2023-02-02T15:47:15.101Z,40.55
2023-02-02T15:49:42.460Z,40.78
2023-02-02T15:52:13.981Z,40.46
2023-02-02T15:54:49.864Z,40.48
2023-02-02T15:57:20.395Z,40.68
2023-02-02T15:59:47.789Z,40.82
2023-02-02T16:02:22.441Z,40.79
2023-02-02T16:04:50.783Z,40.72
2023-02-02T16:07:20.320Z,40.34
2023-02-02T16:09:47.607Z,40.62
2023-02-02T16:12:18.952Z,40.42
2023-02-02T16:14:48.351Z,40.31
2023-02-02T16:17:18.559Z,40.55
2023-02-02T16:19:46.399Z,40.75
2023-02-02T16:22:17.254Z,40.74
2023-02-02T16:24:48.719Z,40.70
2023-02-02T16:27:20.490Z,40.43
2023-02-02T16:29:47.659Z,40.70
2023-02-02T16:32:18.262Z,40.38
2023-02-02T16:34:47.035Z,40.41
2023-02-02T16:37:15.971Z,40.08
2023-02-02T16:39:43.302Z,40.05
2023-02-02T16:42:11.104Z,40.18
2023-02-02T16:44:39.534Z,39.92
2023-02-02T16:47:07.987Z,40.13
2023-02-02T16:49:36.120Z,39.74
2023-02-02T16:52:06.225Z,39.74
2023-02-02T16:54:33.520Z,39.64
2023-02-02T16:57:02.016Z,39.71
2023-02-02T16:59:31.539Z,39.37
2023-02-02T17:02:00.268Z,39.61
2023-02-02T17:04:29.337Z,39.34
2023-02-02T17:06:58.199Z,39.39
2023-02-02T17:09:29.046Z,39.14
2023-02-02T17:11:57.876Z,39.00
2023-02-02T17:14:28.804Z,38.97
2023-02-02T17:16:55.924Z,39.33
2023-02-02T17:19:23.126Z,38.95
2023-02-02T17:21:50.279Z,39.09
2023-02-02T17:24:17.387Z,38.67
2023-02-02T17:26:45.710Z,39.15
2023-02-02T17:29:15.430Z,38.89
2023-02-02T17:31:44.092Z,38.80
2023-02-02T17:34:13.392Z,38.59
2023-02-02T17:36:40.490Z,38.96
2023-02-02T17:39:08.811Z,38.85
2023-02-02T17:41:37.267Z,38.82
2023-02-02T17:44:05.842Z,38.94
2023-02-02T17:46:33.705Z,38.89
2023-02-02T17:49:01.157Z,38.98
2023-02-02T17:51:28.580Z,39.05
2023-02-02T17:53:58.217Z,38.93
2023-02-02T17:56:25.689Z,38.99
2023-02-02T17:58:52.918Z,39.01
2023-02-02T18:01:20.368Z,38.47
2023-02-02T18:03:48.384Z,38.73
2023-02-02T18:06:15.608Z,38.81
2023-02-02T18:08:43.341Z,38.51
2023-02-02T18:11:13.394Z,38.85
2023-02-02T18:13:41.501Z,38.63
2023-02-02T18:16:09.173Z,38.96
2023-02-02T18:18:36.715Z,38.49
2023-02-02T18:21:07.892Z,38.57
2023-02-02T18:23:35.427Z,38.67
2023-02-02T18:26:06.277Z,38.45
2023-02-02T18:28:34.828Z,38.50
2023-02-02T18:31:07.381Z,38.40
2023-02-02T18:33:34.590Z,38.51
2023-02-02T18:36:01.867Z,38.57
2023-02-02T18:38:28.844Z,38.27
2023-02-02T18:40:57.106Z,38.58
2023-02-02T18:43:25.021Z,38.23
2023-02-02T18:45:55.179Z,38.31
2023-02-02T18:48:22.663Z,38.36
2023-02-02T18:50:49.998Z,38.58
2023-02-02T18:53:18.575Z,38.35
2023-02-02T18:55:46.349Z,38.35
2023-02-02T18:58:15.086Z,38.62
2023-02-02T19:00:42.615Z,38.29
2023-02-02T19:03:10.848Z,38.15
2023-02-02T19:05:41.343Z,38.27
2023-02-02T19:08:08.358Z,38.34
2023-02-02T19:10:35.255Z,38.48
2023-02-02T19:13:05.836Z,38.09
2023-02-02T19:15:38.043Z,38.55
2023-02-02T19:18:12.020Z,38.50
2023-02-02T19:20:39.058Z,38.06
2023-02-02T19:23:10.781Z,38.28
2023-02-02T19:25:39.815Z,38.06
2023-02-02T19:28:16.337Z,38.44
2023-02-02T19:30:45.626Z,38.20
2023-02-02T19:33:13.350Z,38.36
2023-02-02T19:35:40.899Z,38.11
2023-02-02T19:38:11.038Z,38.14
2023-02-02T19:40:39.418Z,38.34
2023-02-02T19:43:07.838Z,38.49
2023-02-02T19:45:34.963Z,38.14
2023-02-02T19:48:07.185Z,38.60
2023-02-02T19:50:38.416Z,38.57
2023-02-02T19:53:13.006Z,38.25
2023-02-02T19:55:41.537Z,38.60
2023-02-02T19:58:11.981Z,38.12
2023-02-02T20:00:41.017Z,38.25
2023-02-02T20:03:11.318Z,38.24
2023-02-02T20:05:39.309Z,38.48
2023-02-02T20:08:07.863Z,38.45
2023-02-02T20:10:37.737Z,38.44
2023-02-02T20:13:07.999Z,38.43
2023-02-02T20:15:36.073Z,38.49
2023-02-02T20:18:04.797Z,38.28
2023-02-02T20:20:35.388Z,38.64
2023-02-02T20:23:02.623Z,38.32
2023-02-02T20:25:32.590Z,38.61
2023-02-02T20:28:07.378Z,38.76
2023-02-02T20:30:35.577Z,38.54
2023-02-02T20:33:04.287Z,38.62
2023-02-02T20:35:35.405Z,38.41
2023-02-02T20:38:02.871Z,38.40
2023-02-02T20:40:30.751Z,38.85
2023-02-02T20:42:58.788Z,38.46
2023-02-02T20:45:25.976Z,38.41
2023-02-02T20:47:53.120Z,38.92
2023-02-02T20:50:21.773Z,38.59
2023-02-02T20:52:48.987Z,39.06
2023-02-02T20:55:16.498Z,38.97
2023-02-02T20:57:43.619Z,39.17
2023-02-02T21:00:12.320Z,39.16
2023-02-02T21:02:40.325Z,39.01
2023-02-02T21:05:07.858Z,38.75
2023-02-02T21:07:34.837Z,39.22
2023-02-02T21:10:02.265Z,39.25
2023-02-02T21:12:29.243Z,39.21
2023-02-02T21:14:56.152Z,39.37
2023-02-02T21:17:23.381Z,39.14
2023-02-02T21:19:50.584Z,39.38
2023-02-02T21:22:17.911Z,39.29
2023-02-02T21:24:45.400Z,39.37
2023-02-02T21:27:12.669Z,39.38
2023-02-02T21:29:39.894Z,39.35
2023-02-02T21:32:07.136Z,39.41
2023-02-02T21:34:34.172Z,39.23
2023-02-02T21:37:01.191Z,39.37
2023-02-02T21:39:29.605Z,39.39
2023-02-02T21:41:59.562Z,39.60
2023-02-02T21:44:26.888Z,39.75
2023-02-02T21:46:54.064Z,39.77
2023-02-02T21:49:24.679Z,39.32
2023-02-02T21:51:52.566Z,39.61
2023-02-02T21:54:22.128Z,39.78
2023-02-02T21:56:49.499Z,39.37
2023-02-02T21:59:18.469Z,39.81
2023-02-02T22:01:46.101Z,39.47
2023-02-02T22:04:17.011Z,39.76
2023-02-02T22:06:46.248Z,39.84
2023-02-02T22:09:13.512Z,39.62
2023-02-02T22:11:45.747Z,39.67
2023-02-02T22:14:15.701Z,39.92
2023-02-02T22:16:45.413Z,39.86
2023-02-02T22:19:15.364Z,39.96
2023-02-02T22:21:42.236Z,39.70
2023-02-02T22:24:12.986Z,39.93
2023-02-02T22:26:40.018Z,39.71
2023-02-02T22:29:12.767Z,39.88
2023-02-02T22:31:39.915Z,39.75
2023-02-02T22:34:06.976Z,39.79
2023-02-02T22:36:33.867Z,40.15
2023-02-02T22:39:00.898Z,39.94
2023-02-02T22:41:28.042Z,40.28
2023-02-02T22:43:55.693Z,40.26
2023-02-02T22:46:22.764Z,40.05
2023-02-02T22:48:49.737Z,40.13
2023-02-02T22:51:16.721Z,40.15
2023-02-02T22:53:43.592Z,40.08
2023-02-02T22:56:10.509Z,40.35
2023-02-02T22:58:37.433Z,40.07
2023-02-02T23:01:05.263Z,39.88
2023-02-02T23:03:32.256Z,40.25
2023-02-02T23:05:59.123Z,40.34
2023-02-02T23:08:26.628Z,40.29
2023-02-02T23:10:53.717Z,40.17
2023-02-02T23:13:20.941Z,40.26
2023-02-02T23:15:47.879Z,40.33
2023-02-02T23:18:14.771Z,40.70
2023-02-02T23:20:42.572Z,40.80
2023-02-02T23:23:09.556Z,40.86
2023-02-02T23:25:36.462Z,40.79
2023-02-02T23:28:03.485Z,40.92
2023-02-02T23:30:30.470Z,40.76
2023-02-02T23:32:57.268Z,40.57
2023-02-02T23:35:24.631Z,40.97
2023-02-02T23:37:51.523Z,40.64
2023-02-02T23:40:18.528Z,40.88
2023-02-02T23:42:45.653Z,40.78
2023-02-02T23:45:13.595Z,40.24
2023-02-02T23:47:41.670Z,40.61
2023-02-02T23:50:09.602Z,40.62
2023-02-02T23:52:38.421Z,40.53
2023-02-02T23:55:05.647Z,40.14
2023-02-02T23:57:34.000Z,40.31
